Time;durP1;ratioP1;P1;durP2;ratioP2;P2;SDS_P1;SDS_P2;PMS_P1;PMS_P2;Temp;Humidity;BMP_temperature;BMP_pressure;BME280_temperature;BME280_humidity;BME280_pressure;Samples;Min_cycle;Max_cycle;Signal;HPM_P1;HPM_P2
2023/10/04 05:19:42;;;;;;;2.95;1.10;;;;;;;;;;5060023;28;20423;-80
2023/10/04 05:22:08;;;;;;;1.98;1.45;;;;;;;;;;5042920;28;20045;-81
2023/10/04 05:24:33;;;;;;;4.25;2.50;;;;;;;;;;5041192;28;20029;-82
2023/10/04 05:26:59;;;;;;;1.98;1.60;;;;;;;;;;5042206;28;20143;-80
2023/10/04 05:29:25;;;;;;;8.98;2.35;;;;;;;;;;5041763;28;20021;-80
2023/10/04 05:31:50;;;;;;;5.70;2.53;;;;;;;;;;5040922;28;20029;-81
2023/10/04 05:34:15;;;;;;;4.93;2.88;;;;;;;;;;5040718;28;20033;-82
2023/10/04 05:36:41;;;;;;;6.22;2.08;;;;;;;;;;5044086;28;20652;-81
2023/10/04 05:39:08;;;;;;;5.85;3.33;;;;;;;;;;5041307;28;20693;-80
2023/10/04 05:41:35;;;;;;;2.55;1.95;;;;;;;;;;5041404;28;20488;-80
2023/10/04 05:44:00;;;;;;;3.47;1.70;;;;;;;;;;5041424;28;20144;-82
2023/10/04 05:46:26;;;;;;;4.43;2.45;;;;;;;;;;5044714;28;20947;-82
2023/10/04 05:48:51;;;;;;;3.20;2.42;;;;;;;;;;5042195;28;20412;-81
2023/10/04 05:51:17;;;;;;;5.22;2.83;;;;;;;;;;5042830;28;20029;-81
2023/10/04 05:53:42;;;;;;;3.25;2.15;;;;;;;;;;5042413;28;20503;-82
2023/10/04 05:56:09;;;;;;;3.83;2.80;;;;;;;;;;5040754;28;20125;-82
2023/10/04 05:58:35;;;;;;;4.72;3.25;;;;;;;;;;5043561;28;20486;-82
2023/10/04 06:01:01;;;;;;;2.97;2.17;;;;;;;;;;5044271;28;20024;-81
2023/10/04 06:03:27;;;;;;;6.15;2.88;;;;;;;;;;5044553;28;20120;-80
2023/10/04 06:05:52;;;;;;;4.68;3.53;;;;;;;;;;5043956;28;20104;-80
2023/10/04 06:08:18;;;;;;;7.47;2.28;;;;;;;;;;5041126;28;22229;-81
2023/10/04 06:10:46;;;;;;;3.85;2.75;;;;;;;;;;5041441;28;20679;-81
2023/10/04 06:13:11;;;;;;;2.97;2.03;;;;;;;;;;5070850;28;20427;-84
2023/10/04 06:15:41;;;;;;;3.75;1.85;;;;;;;;;;5053156;28;20025;-84
2023/10/04 06:18:07;;;;;;;;;;;;;;;;;;5054844;28;20032;-89
2023/10/04 06:20:36;;;;;;;5.55;3.35;;;;;;;;;;5055155;28;19928;-83
2023/10/04 06:23:05;;;;;;;6.75;3.67;;;;;;;;;;5032973;28;20114;-81
2023/10/04 06:25:33;;;;;;;6.32;3.60;;;;;;;;;;5028227;28;20045;-79
2023/10/04 06:28:00;;;;;;;5.05;2.75;;;;;;;;;;5026033;28;20083;-81
2023/10/04 06:30:28;;;;;;;4.75;2.50;;;;;;;;;;5018354;28;20025;-81
2023/10/04 06:32:58;;;;;;;6.55;3.05;;;;;;;;;;5019467;28;20024;-80
2023/10/04 06:35:24;;;;;;;3.22;1.77;;;;;;;;;;5019215;28;20391;-81
2023/10/04 06:37:58;;;;;;;5.80;3.50;;;;;;;;;;5014130;28;20041;-82
2023/10/04 06:40:25;;;;;;;6.65;3.58;;;;;;;;;;5009699;28;20065;-82
2023/10/04 06:42:52;;;;;;;7.20;5.15;;;;;;;;;;5015023;28;20025;-80
2023/10/04 06:45:20;;;;;;;7.95;4.03;;;;;;;;;;5014628;28;20064;-82
2023/10/04 06:47:47;;;;;;;4.20;3.60;;;;;;;;;;5016722;28;20079;-79
2023/10/04 06:50:13;;;;;;;6.80;3.88;;;;;;;;;;5016003;28;20037;-81
2023/10/04 06:52:41;;;;;;;5.60;3.88;;;;;;;;;;5018352;28;20038;-80
2023/10/04 06:55:11;;;;;;;10.87;3.47;;;;;;;;;;5018599;28;20025;-82
2023/10/04 06:57:39;;;;;;;6.72;3.58;;;;;;;;;;5019207;28;20112;-80
2023/10/04 07:00:15;;;;;;;5.90;3.78;;;;;;;;;;5015502;28;20025;-83
2023/10/04 07:02:54;;;;;;;5.38;3.60;;;;;;;;;;5022039;28;20060;-79
2023/10/04 07:05:24;;;;;;;4.97;2.88;;;;;;;;;;5043682;28;20032;-83
2023/10/04 07:07:53;;;;;;;7.20;2.95;;;;;;;;;;5028775;28;20038;-80
2023/10/04 07:10:21;;;;;;;5.53;3.00;;;;;;;;;;5039355;28;20063;-80
2023/10/04 07:12:48;;;;;;;6.47;3.95;;;;;;;;;;5041580;28;20499;-81
2023/10/04 07:15:14;;;;;;;8.73;4.20;;;;;;;;;;5047946;28;20036;-79
2023/10/04 07:17:41;;;;;;;5.03;4.10;;;;;;;;;;5035455;28;20040;-80
2023/10/04 07:20:13;;;;;;;7.15;3.60;;;;;;;;;;5046169;28;20037;-79
2023/10/04 07:22:40;;;;;;;9.25;3.97;;;;;;;;;;5044934;28;20112;-79
2023/10/04 07:25:07;;;;;;;16.48;4.32;;;;;;;;;;5042624;28;20049;-79
2023/10/04 07:27:33;;;;;;;13.15;4.78;;;;;;;;;;5035745;28;20029;-79
2023/10/04 07:29:58;;;;;;;7.90;4.68;;;;;;;;;;5038705;28;20071;-81
2023/10/04 07:32:25;;;;;;;6.82;4.10;;;;;;;;;;5042151;28;20123;-80
2023/10/04 07:34:50;;;;;;;10.07;4.13;;;;;;;;;;5041456;28;20040;-82
2023/10/04 07:37:15;;;;;;;7.80;4.45;;;;;;;;;;5033918;28;20029;-81
2023/10/04 07:39:41;;;;;;;9.25;2.88;;;;;;;;;;5039297;28;20505;-82
2023/10/04 07:42:06;;;;;;;6.88;2.65;;;;;;;;;;5034902;28;20024;-84
2023/10/04 07:44:32;;;;;;;5.47;3.88;;;;;;;;;;5045550;28;20083;-81
2023/10/04 07:47:01;;;;;;;4.70;3.28;;;;;;;;;;5044174;28;20034;-82
2023/10/04 07:49:28;;;;;;;6.40;4.57;;;;;;;;;;5040862;28;20040;-81
2023/10/04 07:51:55;;;;;;;8.55;3.72;;;;;;;;;;5032670;28;20031;-81
2023/10/04 07:54:20;;;;;;;9.15;3.88;;;;;;;;;;5031931;28;20032;-80
2023/10/04 07:56:46;;;;;;;6.40;3.55;;;;;;;;;;5037779;28;20025;-80
2023/10/04 07:59:12;;;;;;;5.35;3.63;;;;;;;;;;5036753;28;20419;-80
2023/10/04 08:01:40;;;;;;;5.78;3.20;;;;;;;;;;5032913;28;20037;-80
2023/10/04 08:04:07;;;;;;;2.70;2.40;;;;;;;;;;5032735;28;20056;-81
2023/10/04 08:06:35;;;;;;;7.28;2.97;;;;;;;;;;5036354;28;20033;-81
2023/10/04 08:09:01;;;;;;;5.47;4.20;;;;;;;;;;5035885;28;20025;-82
2023/10/04 08:11:27;;;;;;;15.80;3.22;;;;;;;;;;5034384;28;20396;-82
2023/10/04 08:13:52;;;;;;;5.20;3.33;;;;;;;;;;5036336;28;20117;-81
2023/10/04 08:16:18;;;;;;;10.73;3.95;;;;;;;;;;5031497;28;20108;-81
2023/10/04 08:18:44;;;;;;;4.65;3.50;;;;;;;;;;5043263;28;20084;-82
2023/10/04 08:21:09;;;;;;;6.28;3.97;;;;;;;;;;5038658;28;20033;-80
2023/10/04 08:23:35;;;;;;;9.70;3.42;;;;;;;;;;5038642;28;20082;-82
2023/10/04 08:26:00;;;;;;;6.28;2.95;;;;;;;;;;5027271;28;20085;-79
2023/10/04 08:28:26;;;;;;;4.20;2.72;;;;;;;;;;5026184;28;20029;-82
2023/10/04 08:30:51;;;;;;;10.73;3.65;;;;;;;;;;5029785;28;20462;-80
2023/10/04 08:33:31;;;;;;;14.25;4.13;;;;;;;;;;5037417;28;20036;-81
2023/10/04 08:35:57;;;;;;;2.75;2.20;;;;;;;;;;5033188;28;20026;-84
2023/10/04 08:38:25;;;;;;;6.90;4.18;;;;;;;;;;5038521;28;20038;-81
2023/10/04 08:40:50;;;;;;;3.53;2.55;;;;;;;;;;5041033;28;20030;-81
2023/10/04 08:43:17;;;;;;;5.35;2.83;;;;;;;;;;5040754;28;20032;-81
2023/10/04 08:45:46;;;;;;;2.92;2.22;;;;;;;;;;5035322;28;20032;-82
2023/10/04 08:48:12;;;;;;;3.67;2.58;;;;;;;;;;5044274;28;20082;-82
2023/10/04 08:50:38;;;;;;;6.07;3.25;;;;;;;;;;5038387;28;20469;-82
2023/10/04 08:53:16;;;;;;;5.45;3.00;;;;;;;;;;5041136;28;20033;-81
2023/10/04 08:55:48;;;;;;;3.17;1.70;;;;;;;;;;5037251;28;20061;-81
2023/10/04 08:58:15;;;;;;;7.70;3.35;;;;;;;;;;5039212;28;20029;-80
2023/10/04 09:00:44;;;;;;;5.00;2.85;;;;;;;;;;5043437;28;20029;-80
2023/10/04 09:03:12;;;;;;;5.53;3.50;;;;;;;;;;5041289;28;20044;-83
2023/10/04 09:05:39;;;;;;;5.78;2.97;;;;;;;;;;5042460;28;20472;-81
2023/10/04 09:08:05;;;;;;;7.85;3.03;;;;;;;;;;5038217;28;20037;-81
2023/10/04 09:10:34;;;;;;;9.43;3.38;;;;;;;;;;5046332;28;20040;-82
2023/10/04 09:13:04;;;;;;;6.23;3.27;;;;;;;;;;5036792;28;20044;-81
2023/10/04 09:15:30;;;;;;;6.40;3.55;;;;;;;;;;5041228;28;20056;-82
2023/10/04 09:17:57;;;;;;;5.88;3.30;;;;;;;;;;5041746;28;20041;-81
2023/10/04 09:20:31;;;;;;;6.22;3.75;;;;;;;;;;5040148;28;20036;-81
2023/10/04 09:22:59;;;;;;;7.88;2.92;;;;;;;;;;5035335;28;20029;-83
2023/10/04 09:25:37;;;;;;;3.45;2.70;;;;;;;;;;5039567;28;20037;-82
2023/10/04 09:28:09;;;;;;;5.43;2.95;;;;;;;;;;5035337;28;20036;-82
2023/10/04 09:30:36;;;;;;;5.85;3.17;;;;;;;;;;5032138;28;20036;-81
2023/10/04 09:33:21;;;;;;;13.38;3.75;;;;;;;;;;5032914;28;20052;-83
2023/10/04 09:35:46;;;;;;;4.40;2.55;;;;;;;;;;5036138;28;20082;-83
2023/10/04 09:38:17;;;;;;;6.25;3.13;;;;;;;;;;5037739;28;20029;-82
2023/10/04 09:40:54;;;;;;;6.60;3.53;;;;;;;;;;5035093;28;20488;-81
2023/10/04 09:43:36;;;;;;;4.53;2.63;;;;;;;;;;5035045;28;20021;-83
2023/10/04 09:46:04;;;;;;;10.20;3.63;;;;;;;;;;5040715;28;20048;-82
2023/10/04 09:48:33;;;;;;;4.97;3.63;;;;;;;;;;5034493;28;20030;-83
2023/10/04 09:51:00;;;;;;;6.88;3.13;;;;;;;;;;5037583;28;20025;-82
2023/10/04 09:53:26;;;;;;;5.07;2.92;;;;;;;;;;5035129;28;20052;-82
2023/10/04 09:55:53;;;;;;;5.00;2.97;;;;;;;;;;5038897;28;20029;-81
2023/10/04 09:58:23;;;;;;;6.15;2.95;;;;;;;;;;5034114;28;20031;-83
2023/10/04 10:00:52;;;;;;;10.95;3.33;;;;;;;;;;5040494;28;20432;-81
2023/10/04 10:03:24;;;;;;;3.67;2.83;;;;;;;;;;5033149;28;20037;-83
2023/10/04 10:05:50;;;;;;;4.05;2.13;;;;;;;;;;5042492;28;20025;-82
2023/10/04 10:08:18;;;;;;;7.72;3.05;;;;;;;;;;5045403;28;20031;-82
2023/10/04 10:10:45;;;;;;;6.90;3.03;;;;;;;;;;5045484;28;20456;-82
2023/10/04 10:13:13;;;;;;;3.97;1.92;;;;;;;;;;5040319;28;20026;-84
2023/10/04 10:15:39;;;;;;;4.63;2.67;;;;;;;;;;5036752;28;20385;-83
2023/10/04 10:18:07;;;;;;;6.35;2.72;;;;;;;;;;5053576;28;20044;-81
2023/10/04 10:20:33;;;;;;;3.47;2.60;;;;;;;;;;5044018;28;20025;-82
2023/10/04 10:22:58;;;;;;;8.52;2.55;;;;;;;;;;5036160;28;20025;-83
2023/10/04 10:25:27;;;;;;;6.43;3.15;;;;;;;;;;5042545;28;20068;-80
2023/10/04 10:27:57;;;;;;;6.57;3.38;;;;;;;;;;5039338;28;20033;-82
2023/10/04 10:30:23;;;;;;;;;;;;;;;;;;5036623;28;20535;-82
2023/10/04 10:32:55;;;;;;;4.80;2.58;;;;;;;;;;5039087;28;19917;-82
2023/10/04 10:36:06;;;;;;;4.65;2.60;;;;;;;;;;5046112;28;20035;-81
2023/10/04 10:38:40;;;;;;;7.00;2.80;;;;;;;;;;5036044;28;20036;-83
2023/10/04 10:41:28;;;;;;;5.40;2.75;;;;;;;;;;5044609;28;20135;-82
2023/10/04 10:44:11;;;;;;;3.35;2.50;;;;;;;;;;5041927;28;20025;-81
2023/10/04 10:46:52;;;;;;;3.42;2.03;;;;;;;;;;5045050;28;20112;-83
2023/10/04 10:49:36;;;;;;;7.57;3.40;;;;;;;;;;5046412;28;20029;-82
2023/10/04 10:52:02;;;;;;;6.15;2.08;;;;;;;;;;5039875;28;20180;-84
2023/10/04 10:54:28;;;;;;;2.85;1.92;;;;;;;;;;5044804;28;20079;-81
2023/10/04 10:56:53;;;;;;;3.92;2.63;;;;;;;;;;5034067;28;20412;-82
2023/10/04 10:59:19;;;;;;;4.18;2.05;;;;;;;;;;5038271;28;20021;-82
2023/10/04 11:01:44;;;;;;;2.33;1.70;;;;;;;;;;5039190;28;20037;-83
2023/10/04 11:04:10;;;;;;;3.55;1.80;;;;;;;;;;5039240;28;20037;-83
2023/10/04 11:06:38;;;;;;;2.58;1.42;;;;;;;;;;5043652;28;20037;-83
2023/10/04 11:09:05;;;;;;;4.55;2.05;;;;;;;;;;5037749;28;20451;-81
2023/10/04 11:11:30;;;;;;;1.35;1.25;;;;;;;;;;5042185;28;20065;-81
2023/10/04 11:13:59;;;;;;;3.75;2.40;;;;;;;;;;5043775;28;20059;-81
2023/10/04 11:16:29;;;;;;;2.17;1.45;;;;;;;;;;5039360;28;20461;-85
2023/10/04 11:18:54;;;;;;;;;;;;;;;;;;5042438;28;20048;-83
2023/10/04 11:21:20;;;;;;;2.42;1.67;;;;;;;;;;5045303;28;20367;-80
2023/10/04 11:23:48;;;;;;;2.20;1.20;;;;;;;;;;5040613;28;20029;-83
2023/10/04 11:26:13;;;;;;;2.40;1.20;;;;;;;;;;5038799;28;20037;-83
2023/10/04 11:28:39;;;;;;;1.77;1.08;;;;;;;;;;5034684;28;20025;-81
2023/10/04 11:31:04;;;;;;;5.20;1.85;;;;;;;;;;5064753;28;20388;-82
2023/10/04 11:33:49;;;;;;;7.47;2.13;;;;;;;;;;5072057;28;20484;-83
2023/10/04 11:36:25;;;;;;;1.85;1.17;;;;;;;;;;5043010;28;20036;-83
2023/10/04 11:38:51;;;;;;;3.53;1.38;;;;;;;;;;5040725;28;20033;-81
2023/10/04 11:41:19;;;;;;;5.10;1.58;;;;;;;;;;5041977;28;20033;-82
2023/10/04 11:43:46;;;;;;;1.88;1.40;;;;;;;;;;5038364;28;20029;-83
2023/10/04 11:46:12;;;;;;;3.05;1.58;;;;;;;;;;5045587;28;20024;-83
2023/10/04 11:48:38;;;;;;;2.50;1.27;;;;;;;;;;5040212;28;20037;-83
2023/10/04 11:51:06;;;;;;;4.63;1.52;;;;;;;;;;5038184;28;20041;-84
2023/10/04 11:53:39;;;;;;;1.80;0.82;;;;;;;;;;5036929;28;20032;-81
2023/10/04 11:56:10;;;;;;;4.00;1.35;;;;;;;;;;5032068;28;20032;-82
2023/10/04 11:58:50;;;;;;;1.88;1.40;;;;;;;;;;5031560;28;20022;-82
2023/10/04 12:01:16;;;;;;;2.47;1.10;;;;;;;;;;5026913;28;20480;-80
2023/10/04 12:03:42;;;;;;;2.38;1.00;;;;;;;;;;5038046;28;20031;-80
2023/10/04 12:06:07;;;;;;;4.22;1.65;;;;;;;;;;5041106;28;20025;-80
2023/10/04 12:08:35;;;;;;;5.45;1.38;;;;;;;;;;5039602;28;20064;-81
2023/10/04 12:11:01;;;;;;;2.20;1.30;;;;;;;;;;5038057;28;20020;-80
2023/10/04 12:13:27;;;;;;;1.13;0.95;;;;;;;;;;5063921;28;20043;-82
2023/10/04 12:15:53;;;;;;;4.47;2.22;;;;;;;;;;5034256;28;20634;-80
2023/10/04 12:18:18;;;;;;;2.88;1.42;;;;;;;;;;5037706;28;20045;-82
2023/10/04 12:20:44;;;;;;;4.18;1.55;;;;;;;;;;5036690;28;20497;-82
2023/10/04 12:23:11;;;;;;;1.42;1.00;;;;;;;;;;5036377;28;20414;-83
2023/10/04 12:25:43;;;;;;;2.08;1.20;;;;;;;;;;5030491;28;20033;-83
2023/10/04 12:28:09;;;;;;;2.85;0.95;;;;;;;;;;5039312;28;20020;-81
2023/10/04 12:30:35;;;;;;;2.60;1.33;;;;;;;;;;5031812;28;20025;-82
2023/10/04 12:33:02;;;;;;;2.45;1.40;;;;;;;;;;5042943;28;20021;-80
2023/10/04 12:35:27;;;;;;;3.20;1.55;;;;;;;;;;5028285;28;20025;-80
2023/10/04 12:37:53;;;;;;;1.02;0.77;;;;;;;;;;5033110;28;20444;-81
2023/10/04 12:40:23;;;;;;;3.53;1.25;;;;;;;;;;5033778;28;20037;-81
2023/10/04 12:42:51;;;;;;;2.97;1.33;;;;;;;;;;5036316;28;20075;-81
2023/10/04 12:45:17;;;;;;;2.40;1.65;;;;;;;;;;5034222;28;20025;-79
2023/10/04 12:47:43;;;;;;;3.72;1.83;;;;;;;;;;5034598;28;20087;-81
2023/10/04 12:50:13;;;;;;;4.55;1.63;;;;;;;;;;5025546;28;20134;-81
2023/10/04 12:52:40;;;;;;;3.28;1.40;;;;;;;;;;5036303;28;20032;-80
2023/10/04 12:55:08;;;;;;;2.95;1.38;;;;;;;;;;5026583;28;20109;-83
2023/10/04 12:57:36;;;;;;;2.38;1.83;;;;;;;;;;5031938;28;20484;-80
2023/10/04 13:00:13;;;;;;;3.33;1.20;;;;;;;;;;5040927;28;20358;-82
2023/10/04 13:02:40;;;;;;;2.95;1.27;;;;;;;;;;5028223;28;20036;-81
2023/10/04 13:05:14;;;;;;;4.18;1.45;;;;;;;;;;5037580;28;20037;-82
2023/10/04 13:07:40;;;;;;;3.20;1.95;;;;;;;;;;5031618;28;20472;-81
2023/10/04 13:10:09;;;;;;;2.05;1.40;;;;;;;;;;5034682;28;20100;-81
2023/10/04 13:12:38;;;;;;;3.75;1.63;;;;;;;;;;5033564;28;20029;-81
2023/10/04 13:15:08;;;;;;;4.22;1.27;;;;;;;;;;5036134;28;20381;-82
2023/10/04 13:17:36;;;;;;;2.58;1.42;;;;;;;;;;5026887;28;20033;-82
2023/10/04 13:20:03;;;;;;;3.25;1.55;;;;;;;;;;5038457;28;20026;-81
2023/10/04 13:22:29;;;;;;;2.13;1.48;;;;;;;;;;5032001;28;20642;-82
2023/10/04 13:24:55;;;;;;;10.52;1.60;;;;;;;;;;5038470;28;20021;-81
2023/10/04 13:27:20;;;;;;;2.15;1.40;;;;;;;;;;5033935;28;20444;-82
2023/10/04 13:29:46;;;;;;;1.23;0.90;;;;;;;;;;5030300;28;20029;-82
2023/10/04 13:32:15;;;;;;;5.63;1.70;;;;;;;;;;5035998;28;20040;-82
2023/10/04 13:34:43;;;;;;;2.10;1.05;;;;;;;;;;5029567;28;20112;-82
2023/10/04 13:37:10;;;;;;;3.45;1.70;;;;;;;;;;5030308;28;20465;-82
2023/10/04 13:39:36;;;;;;;3.35;1.40;;;;;;;;;;5031122;28;20033;-81
2023/10/04 13:42:02;;;;;;;2.20;0.93;;;;;;;;;;5034141;28;20041;-82
2023/10/04 13:44:29;;;;;;;5.95;1.55;;;;;;;;;;5041929;28;20027;-80
2023/10/04 13:46:55;;;;;;;2.25;1.30;;;;;;;;;;5037629;28;20521;-81
2023/10/04 13:49:21;;;;;;;2.45;1.60;;;;;;;;;;5034068;28;20104;-82
2023/10/04 13:51:47;;;;;;;2.83;1.42;;;;;;;;;;5033322;28;20033;-83
2023/10/04 13:54:12;;;;;;;4.45;1.83;;;;;;;;;;5033991;28;20472;-81
2023/10/04 13:56:38;;;;;;;2.85;1.63;;;;;;;;;;5042130;28;20021;-82
2023/10/04 13:59:05;;;;;;;2.63;1.67;;;;;;;;;;5040026;28;20028;-81
2023/10/04 14:01:30;;;;;;;3.13;1.88;;;;;;;;;;5040756;28;20038;-82
2023/10/04 14:03:58;;;;;;;1.63;1.17;;;;;;;;;;5047234;28;20028;-83
2023/10/04 14:06:24;;;;;;;2.42;1.48;;;;;;;;;;5032089;28;20030;-83
2023/10/04 14:08:52;;;;;;;3.38;1.85;;;;;;;;;;5027294;28;20029;-83
2023/10/04 14:11:17;;;;;;;4.32;1.67;;;;;;;;;;5026801;28;20021;-83
2023/10/04 14:13:44;;;;;;;3.33;1.30;;;;;;;;;;5027699;28;20408;-82
2023/10/04 14:16:09;;;;;;;3.75;1.75;;;;;;;;;;5027212;28;20033;-83
2023/10/04 14:18:35;;;;;;;4.95;1.52;;;;;;;;;;5024716;28;20048;-82
2023/10/04 14:21:00;;;;;;;4.28;1.65;;;;;;;;;;5027180;28;20075;-82
2023/10/04 14:23:26;;;;;;;4.72;2.25;;;;;;;;;;5026672;28;20497;-82
2023/10/04 14:25:56;;;;;;;3.13;1.45;;;;;;;;;;5026529;28;20032;-83
2023/10/04 14:28:27;;;;;;;4.53;1.92;;;;;;;;;;5028460;28;20025;-83
2023/10/04 14:30:53;;;;;;;3.22;1.52;;;;;;;;;;5022247;28;20044;-82
2023/10/04 14:33:19;;;;;;;3.33;1.85;;;;;;;;;;5026508;28;20508;-81
2023/10/04 14:35:46;;;;;;;2.10;1.02;;;;;;;;;;5026889;28;20076;-81
